Time;durP1;ratioP1;P1;durP2;ratioP2;P2;SDS_P1;SDS_P2;PMS_P1;PMS_P2;Temp;Humidity;BMP_temperature;BMP_pressure;BME280_temperature;BME280_humidity;BME280_pressure;Samples;Min_cycle;Max_cycle;Signal;HPM_P1;HPM_P2
2021/08/08 00:00:01;;;;;;;5.88;4.00;;;13.60;99.90;;;;;;4983835;28;20045;-67
2021/08/08 00:02:38;;;;;;;5.80;3.83;;;13.70;99.90;;;;;;4985654;28;20368;-67
2021/08/08 00:05:10;;;;;;;3.65;3.22;;;13.70;99.90;;;;;;4980452;28;20125;-72
2021/08/08 00:07:37;;;;;;;4.47;4.10;;;13.70;99.90;;;;;;4986148;28;20043;-65
2021/08/08 00:10:08;;;;;;;4.03;3.22;;;13.70;99.90;;;;;;4982846;28;20034;-67
2021/08/08 00:12:35;;;;;;;4.88;3.88;;;13.70;99.90;;;;;;4983251;28;20087;-69
2021/08/08 00:15:05;;;;;;;5.20;4.72;;;13.80;99.90;;;;;;4982192;28;20487;-65
2021/08/08 00:17:32;;;;;;;5.03;4.63;;;13.70;99.90;;;;;;4984773;28;20091;-65
2021/08/08 00:19:59;;;;;;;5.25;4.85;;;13.70;99.90;;;;;;4986019;28;20042;-64
2021/08/08 00:22:25;;;;;;;4.32;3.92;;;13.70;99.90;;;;;;4982026;28;20112;-65
2021/08/08 00:24:52;;;;;;;6.15;5.60;;;13.80;99.90;;;;;;4985210;28;20166;-67
2021/08/08 00:27:19;;;;;;;5.15;4.70;;;13.80;99.90;;;;;;4982076;28;20619;-65
2021/08/08 00:29:46;;;;;;;7.07;5.45;;;13.80;99.90;;;;;;4985344;28;20132;-66
2021/08/08 00:32:13;;;;;;;5.60;5.10;;;13.90;99.90;;;;;;4982559;28;20053;-70
2021/08/08 00:34:42;;;;;;;5.63;5.07;;;13.90;99.90;;;;;;4976508;28;20085;-66
2021/08/08 00:37:10;;;;;;;7.07;6.38;;;13.90;99.90;;;;;;4969468;28;20125;-65
2021/08/08 00:39:37;;;;;;;7.97;7.22;;;14.00;99.90;;;;;;4982268;28;20606;-66
2021/08/08 00:42:04;;;;;;;8.05;7.38;;;14.10;99.90;;;;;;4969735;28;20042;-67
2021/08/08 00:44:32;;;;;;;8.57;7.70;;;14.10;99.90;;;;;;4970164;28;20665;-66
2021/08/08 00:46:59;;;;;;;8.38;7.57;;;14.10;99.90;;;;;;4967022;28;20045;-65
2021/08/08 00:49:28;;;;;;;7.70;6.90;;;14.20;99.90;;;;;;4997688;28;20054;-64
2021/08/08 00:51:56;;;;;;;9.65;7.07;;;14.20;99.90;;;;;;4985026;28;20498;-65
2021/08/08 00:54:28;;;;;;;12.18;11.05;;;14.20;99.90;;;;;;4993730;28;20046;-66
2021/08/08 00:56:58;;;;;;;8.38;7.60;;;14.30;99.90;;;;;;4984391;28;20107;-65
2021/08/08 00:59:26;;;;;;;9.65;8.75;;;14.30;99.90;;;;;;4995215;28;20047;-65
2021/08/08 01:01:54;;;;;;;9.10;7.32;;;14.40;99.90;;;;;;4981873;28;20073;-65
2021/08/08 01:04:50;;;;;;;12.68;8.77;;;14.40;99.90;;;;;;4982609;28;20047;-65
2021/08/08 01:07:27;;;;;;;10.68;8.60;;;14.40;99.90;;;;;;4983364;28;20076;-69
2021/08/08 01:10:00;;;;;;;9.13;8.35;;;14.40;99.90;;;;;;4988021;28;20392;-65
2021/08/08 01:12:31;;;;;;;11.52;9.75;;;14.40;99.90;;;;;;4980923;28;20089;-68
2021/08/08 01:14:59;;;;;;;13.32;9.38;;;14.50;99.90;;;;;;4982686;28;20590;-65
2021/08/08 01:17:27;;;;;;;8.88;8.05;;;14.50;99.90;;;;;;4982326;28;20065;-64
2021/08/08 01:19:59;;;;;;;;;;;14.50;99.90;;;;;;4981913;28;20504;-67
2021/08/08 01:22:34;;;;;;;14.40;9.88;;;14.40;99.90;;;;;;4979601;28;19918;-65
2021/08/08 01:25:04;;;;;;;10.95;9.13;;;14.50;99.90;;;;;;4986867;28;20159;-66
2021/08/08 01:27:31;;;;;;;11.10;9.90;;;14.50;99.90;;;;;;4982920;28;20337;-66
2021/08/08 01:29:59;;;;;;;9.00;8.18;;;14.50;99.90;;;;;;4982754;28;20042;-66
2021/08/08 01:32:29;;;;;;;9.95;9.00;;;14.60;99.90;;;;;;4985169;28;20376;-65
2021/08/08 01:34:56;;;;;;;;;;;14.70;99.90;;;;;;4986810;28;20521;-67
2021/08/08 01:37:25;;;;;;;11.00;9.90;;;14.70;99.90;;;;;;4987478;28;20008;-64
2021/08/08 01:40:17;;;;;;;11.73;10.63;;;14.70;99.90;;;;;;4971238;28;20042;-67
2021/08/08 01:42:48;;;;;;;15.82;11.50;;;14.70;99.90;;;;;;4976210;28;20572;-66
2021/08/08 01:45:17;;;;;;;11.52;10.40;;;14.70;99.90;;;;;;4981150;28;20399;-65
2021/08/08 01:47:51;;;;;;;12.63;11.05;;;14.60;99.90;;;;;;4978649;28;20363;-68
2021/08/08 01:50:22;;;;;;;11.82;10.57;;;14.70;99.90;;;;;;4981387;28;20053;-66
2021/08/08 01:52:50;;;;;;;10.55;9.13;;;14.70;99.90;;;;;;4985217;28;20076;-65
2021/08/08 01:55:23;;;;;;;12.30;9.88;;;14.70;99.90;;;;;;4980085;28;20082;-66
2021/08/08 01:57:56;;;;;;;11.85;10.75;;;14.60;99.90;;;;;;4986142;28;20061;-65
2021/08/08 02:00:26;;;;;;;11.77;10.57;;;14.60;99.90;;;;;;4967094;28;20047;-66
2021/08/08 02:02:58;;;;;;;11.30;9.93;;;14.70;99.90;;;;;;4990462;28;20365;-65
2021/08/08 02:05:48;;;;;;;10.23;9.30;;;14.60;99.90;;;;;;4983758;28;20099;-66
2021/08/08 02:08:18;;;;;;;12.23;10.98;;;14.60;99.90;;;;;;4984651;28;20042;-65
2021/08/08 02:10:52;;;;;;;11.55;9.32;;;14.60;99.90;;;;;;4980380;28;20081;-64
2021/08/08 02:13:26;;;;;;;11.95;10.75;;;14.60;99.90;;;;;;4985685;28;20054;-65
2021/08/08 02:15:56;;;;;;;12.25;10.57;;;14.60;99.90;;;;;;4980503;28;20129;-65
2021/08/08 02:18:24;;;;;;;13.50;12.30;;;14.60;99.90;;;;;;4984747;28;20062;-69
2021/08/08 02:20:52;;;;;;;12.75;9.95;;;14.60;99.90;;;;;;4984766;28;20046;-66
2021/08/08 02:23:20;;;;;;;11.93;10.82;;;14.60;99.90;;;;;;4980264;28;20117;-68
2021/08/08 02:25:50;;;;;;;11.60;10.60;;;14.60;99.90;;;;;;4977256;28;20665;-65
2021/08/08 02:28:23;;;;;;;12.30;11.25;;;14.60;99.90;;;;;;4982435;28;20057;-66
2021/08/08 02:30:50;;;;;;;15.23;13.30;;;14.60;99.90;;;;;;4985448;28;20043;-64
2021/08/08 02:33:21;;;;;;;17.77;13.80;;;14.60;99.90;;;;;;4986244;28;20052;-65
2021/08/08 02:35:48;;;;;;;13.52;12.13;;;14.70;99.90;;;;;;4984132;28;20057;-67
2021/08/08 02:38:17;;;;;;;12.02;10.68;;;14.70;99.90;;;;;;4982345;28;20562;-66
2021/08/08 02:40:46;;;;;;;13.05;11.60;;;14.70;99.90;;;;;;4967231;28;20044;-65
2021/08/08 02:43:14;;;;;;;14.57;10.98;;;14.60;99.90;;;;;;4984676;28;20145;-68
2021/08/08 02:45:42;;;;;;;13.43;11.95;;;14.60;99.90;;;;;;4984789;28;20993;-65
2021/08/08 02:48:12;;;;;;;12.75;11.38;;;14.60;99.90;;;;;;4985314;28;20053;-68
2021/08/08 02:50:39;;;;;;;13.25;11.93;;;14.50;99.90;;;;;;4982297;28;20120;-65
2021/08/08 02:53:07;;;;;;;11.27;10.13;;;14.50;99.90;;;;;;4986520;28;20050;-64
2021/08/08 02:55:37;;;;;;;14.15;10.48;;;14.50;99.90;;;;;;4982997;28;20101;-65
2021/08/08 02:58:04;;;;;;;12.82;11.20;;;14.50;99.90;;;;;;4985914;28;20046;-66
2021/08/08 03:00:34;;;;;;;10.57;9.48;;;14.50;99.90;;;;;;4985271;28;20058;-66
2021/08/08 03:03:02;;;;;;;14.40;12.93;;;14.40;99.90;;;;;;4986223;28;20388;-64
2021/08/08 03:05:32;;;;;;;13.70;12.02;;;14.50;99.90;;;;;;4979971;28;20050;-69
2021/08/08 03:07:59;;;;;;;12.90;11.55;;;14.40;99.90;;;;;;4986871;28;21401;-67
2021/08/08 03:10:27;;;;;;;14.45;12.95;;;14.50;99.90;;;;;;4980962;28;20042;-65
2021/08/08 03:12:54;;;;;;;14.88;13.23;;;14.50;99.90;;;;;;4979025;28;20122;-66
2021/08/08 03:15:22;;;;;;;16.90;13.82;;;14.50;99.90;;;;;;4998572;28;20052;-67
2021/08/08 03:17:49;;;;;;;13.00;11.77;;;14.50;99.90;;;;;;4983772;28;20571;-65
2021/08/08 03:20:20;;;;;;;16.02;11.20;;;14.60;99.90;;;;;;4982961;28;20200;-65
2021/08/08 03:22:47;;;;;;;14.18;12.30;;;14.60;99.90;;;;;;4969522;28;20082;-65
2021/08/08 03:25:15;;;;;;;13.38;12.00;;;14.60;99.90;;;;;;4980967;28;20125;-67
2021/08/08 03:27:42;;;;;;;14.32;12.63;;;14.60;99.90;;;;;;4985216;28;20042;-64
2021/08/08 03:30:12;;;;;;;14.48;13.02;;;14.60;99.90;;;;;;4983718;28;20142;-70
2021/08/08 03:32:41;;;;;;;16.83;13.75;;;14.70;99.90;;;;;;4982181;28;20444;-65
2021/08/08 03:35:09;;;;;;;15.75;14.02;;;14.70;99.90;;;;;;4984314;28;20058;-69
2021/08/08 03:37:36;;;;;;;16.35;14.75;;;14.70;99.90;;;;;;4984112;28;20057;-65
2021/08/08 03:40:03;;;;;;;16.05;14.13;;;14.80;99.90;;;;;;4982676;28;20052;-67
2021/08/08 03:42:30;;;;;;;16.85;15.00;;;14.90;99.90;;;;;;4983776;28;20120;-64
2021/08/08 03:44:58;;;;;;;20.55;16.80;;;14.90;99.90;;;;;;4982518;28;20088;-67
2021/08/08 03:47:26;;;;;;;16.77;14.60;;;15.00;99.90;;;;;;4989947;28;20098;-65
2021/08/08 03:49:52;;;;;;;17.75;15.77;;;15.00;99.90;;;;;;4981966;28;20050;-68
2021/08/08 03:52:19;;;;;;;20.08;15.85;;;15.00;99.90;;;;;;4983518;28;20050;-68
2021/08/08 03:54:47;;;;;;;16.33;13.82;;;15.00;99.90;;;;;;4982838;28;20174;-68
2021/08/08 03:57:14;;;;;;;20.08;17.08;;;15.10;99.90;;;;;;4986640;28;20042;-69
2021/08/08 03:59:41;;;;;;;20.02;17.80;;;15.10;99.90;;;;;;4980994;28;20038;-66
2021/08/08 04:02:09;;;;;;;16.67;15.00;;;15.10;99.90;;;;;;4983442;28;20082;-65
2021/08/08 04:04:36;;;;;;;17.75;15.95;;;15.20;99.90;;;;;;4982452;28;20084;-68
2021/08/08 04:07:03;;;;;;;16.88;15.18;;;15.20;99.90;;;;;;4986785;28;20044;-65
2021/08/08 04:09:31;;;;;;;18.02;16.00;;;15.20;99.90;;;;;;4981913;28;20056;-65
2021/08/08 04:11:58;;;;;;;16.05;14.05;;;15.20;99.90;;;;;;4993867;28;20048;-66
2021/08/08 04:14:25;;;;;;;18.15;16.35;;;15.30;99.90;;;;;;4998586;28;20046;-66
2021/08/08 04:16:52;;;;;;;17.40;15.80;;;15.30;99.90;;;;;;4983166;28;20046;-68
2021/08/08 04:19:19;;;;;;;17.88;16.10;;;15.30;99.90;;;;;;4984768;28;20113;-65
2021/08/08 04:21:46;;;;;;;16.92;15.10;;;15.30;99.90;;;;;;4980575;28;20043;-66
2021/08/08 04:24:14;;;;;;;18.08;16.05;;;15.40;99.90;;;;;;4995226;28;20042;-66
2021/08/08 04:26:41;;;;;;;16.30;14.65;;;15.40;99.90;;;;;;4985055;28;20478;-65
2021/08/08 04:29:08;;;;;;;16.38;14.70;;;15.40;99.90;;;;;;4982755;28;20054;-68
2021/08/08 04:31:35;;;;;;;15.70;14.02;;;15.50;99.90;;;;;;4981020;28;20474;-64
2021/08/08 04:34:03;;;;;;;17.33;14.75;;;15.50;99.90;;;;;;5000962;28;20077;-69
2021/08/08 04:36:30;;;;;;;16.63;14.98;;;15.60;99.90;;;;;;4981385;28;20053;-65
2021/08/08 04:38:56;;;;;;;15.50;14.10;;;15.60;99.90;;;;;;4985152;28;20112;-65
2021/08/08 04:41:24;;;;;;;16.50;14.88;;;15.70;99.90;;;;;;4982691;28;20076;-69
2021/08/08 04:43:51;;;;;;;15.73;14.32;;;15.70;99.90;;;;;;4984117;28;20560;-70
2021/08/08 04:46:18;;;;;;;14.55;13.15;;;15.70;99.90;;;;;;4981967;28;20057;-65
2021/08/08 04:48:45;;;;;;;15.55;13.95;;;15.70;99.90;;;;;;4986118;28;20054;-69
2021/08/08 04:51:12;;;;;;;14.75;13.38;;;15.70;99.90;;;;;;4983281;28;20097;-71
2021/08/08 04:53:39;;;;;;;12.65;11.50;;;15.80;99.90;;;;;;4980477;28;20328;-67
2021/08/08 04:56:06;;;;;;;15.38;13.63;;;15.80;99.90;;;;;;4985537;28;20130;-64
2021/08/08 04:58:34;;;;;;;13.90;12.10;;;15.80;99.90;;;;;;4981916;28;20124;-65
2021/08/08 05:01:01;;;;;;;13.23;12.13;;;15.80;99.90;;;;;;4983748;28;20326;-64
2021/08/08 05:03:29;;;;;;;11.70;10.73;;;15.90;99.90;;;;;;4982708;28;20050;-67
2021/08/08 05:05:56;;;;;;;13.38;12.00;;;15.90;99.90;;;;;;4972603;28;20097;-68
2021/08/08 05:08:23;;;;;;;14.02;12.70;;;15.90;99.90;;;;;;4978789;28;20052;-64
2021/08/08 05:10:50;;;;;;;14.70;13.40;;;15.90;99.90;;;;;;4983461;28;20049;-68
2021/08/08 05:13:17;;;;;;;13.90;12.52;;;15.90;99.90;;;;;;4979364;28;20129;-64
2021/08/08 05:15:44;;;;;;;15.70;14.05;;;16.00;99.90;;;;;;4985160;28;20372;-67
2021/08/08 05:18:11;;;;;;;15.65;14.15;;;16.00;99.90;;;;;;4981852;28;20061;-69
2021/08/08 05:20:38;;;;;;;14.32;12.93;;;16.00;99.90;;;;;;4981802;28;20042;-67
2021/08/08 05:23:06;;;;;;;13.90;12.60;;;16.00;99.90;;;;;;4979570;28;20710;-64
2021/08/08 05:25:34;;;;;;;11.23;10.10;;;16.10;99.90;;;;;;4983974;28;20512;-65
2021/08/08 05:28:01;;;;;;;13.85;12.60;;;16.10;99.90;;;;;;4980946;28;20040;-70
2021/08/08 05:30:28;;;;;;;15.63;14.07;;;16.00;99.90;;;;;;4982627;28;20101;-66
2021/08/08 05:32:55;;;;;;;15.60;13.40;;;16.00;99.90;;;;;;4982369;28;20072;-64
2021/08/08 05:35:22;;;;;;;14.00;12.52;;;16.20;99.90;;;;;;4976493;28;20061;-69
2021/08/08 05:37:50;;;;;;;12.50;11.23;;;16.10;99.90;;;;;;4975804;28;20067;-65
2021/08/08 05:40:18;;;;;;;12.10;10.95;;;16.10;99.90;;;;;;4984759;28;20039;-65
2021/08/08 05:42:49;;;;;;;;;;;16.10;99.90;;;;;;4983372;28;20047;-70
2021/08/08 05:45:20;;;;;;;13.23;11.88;;;16.10;99.90;;;;;;4974408;28;20564;-68
2021/08/08 05:47:47;;;;;;;12.80;10.27;;;16.20;99.90;;;;;;4989601;28;20042;-68
2021/08/08 05:50:16;;;;;;;11.73;10.63;;;16.20;99.90;;;;;;4965187;28;20070;-65
2021/08/08 05:52:50;;;;;;;12.52;11.20;;;16.20;99.90;;;;;;4981816;28;20050;-66
2021/08/08 05:55:19;;;;;;;12.75;11.55;;;16.20;99.90;;;;;;4980534;28;20444;-68
2021/08/08 05:57:46;;;;;;;12.68;11.48;;;16.20;99.90;;;;;;4983848;28;20042;-67
2021/08/08 06:00:15;;;;;;;12.70;11.50;;;16.20;99.90;;;;;;4979689;28;20053;-69
2021/08/08 06:02:45;;;;;;;15.47;14.07;;;16.20;99.90;;;;;;4984823;28;20041;-66
2021/08/08 06:05:16;;;;;;;13.73;12.43;;;16.30;99.90;;;;;;4967428;28;20039;-65
2021/08/08 06:07:43;;;;;;;13.00;11.73;;;16.20;99.90;;;;;;4990196;28;20051;-65
2021/08/08 06:10:10;;;;;;;14.27;12.98;;;16.30;99.90;;;;;;4980569;28;20100;-70
2021/08/08 06:12:38;;;;;;;12.55;11.27;;;16.30;99.90;;;;;;4984435;28;20038;-66
2021/08/08 06:15:05;;;;;;;13.02;11.75;;;16.30;99.90;;;;;;4970072;28;20089;-70
2021/08/08 06:17:32;;;;;;;13.57;12.27;;;16.30;99.90;;;;;;4984916;28;20039;-66
2021/08/08 06:19:59;;;;;;;14.75;13.13;;;16.30;99.90;;;;;;4988174;28;20100;-67
2021/08/08 06:22:29;;;;;;;13.25;12.10;;;16.30;99.90;;;;;;4983299;28;20071;-66
2021/08/08 06:24:56;;;;;;;12.15;11.05;;;16.30;99.90;;;;;;4987200;28;20062;-66
2021/08/08 06:27:23;;;;;;;13.02;11.85;;;16.30;99.90;;;;;;4985709;28;20133;-67
2021/08/08 06:29:50;;;;;;;15.65;14.15;;;16.30;99.90;;;;;;4985344;28;20038;-68
2021/08/08 06:32:18;;;;;;;15.45;13.85;;;16.40;99.90;;;;;;4982729;28;20143;-65
2021/08/08 06:34:44;;;;;;;14.25;12.65;;;16.40;99.90;;;;;;4983994;28;20038;-67
2021/08/08 06:37:11;;;;;;;16.48;14.85;;;16.40;99.90;;;;;;4987069;28;20049;-71
2021/08/08 06:39:38;;;;;;;13.70;12.32;;;16.40;99.90;;;;;;4978263;28;20512;-65
2021/08/08 06:42:05;;;;;;;16.42;13.82;;;16.50;99.90;;;;;;4982458;28;20142;-65
2021/08/08 06:44:39;;;;;;;14.68;13.27;;;16.50;99.90;;;;;;4979668;28;20074;-65
2021/08/08 06:47:06;;;;;;;15.02;13.63;;;16.50;99.90;;;;;;4979343;28;20041;-65
2021/08/08 06:49:34;;;;;;;18.75;13.85;;;16.50;99.90;;;;;;4985360;28;20054;-64
2021/08/08 06:52:01;;;;;;;16.58;14.98;;;16.50;99.90;;;;;;4984536;28;20463;-65
2021/08/08 06:54:28;;;;;;;15.32;13.85;;;16.50;99.90;;;;;;4980416;28;20096;-66
2021/08/08 06:56:55;;;;;;;18.80;16.92;;;16.50;99.90;;;;;;4984196;28;20049;-68
2021/08/08 06:59:22;;;;;;;16.60;15.10;;;16.50;99.90;;;;;;4990884;28;20073;-67
2021/08/08 07:01:49;;;;;;;18.27;14.02;;;16.50;99.90;;;;;;4984562;28;20038;-67
2021/08/08 07:04:17;;;;;;;14.80;13.13;;;16.50;99.90;;;;;;4982037;28;20038;-65
2021/08/08 07:06:44;;;;;;;20.85;16.92;;;16.50;99.90;;;;;;4984816;28;20048;-67
2021/08/08 07:09:11;;;;;;;16.02;14.48;;;16.50;99.90;;;;;;4981946;28;20121;-65
2021/08/08 07:11:40;;;;;;;15.27;13.77;;;16.50;99.90;;;;;;4983338;28;20496;-66
2021/08/08 07:14:16;;;;;;;13.48;12.18;;;16.60;99.90;;;;;;4998755;28;20054;-68
2021/08/08 07:16:43;;;;;;;15.07;13.77;;;16.60;99.90;;;;;;4982189;28;20116;-66
2021/08/08 07:19:10;;;;;;;12.48;11.23;;;16.60;99.90;;;;;;4986228;28;20054;-68
2021/08/08 07:21:37;;;;;;;12.65;11.45;;;16.60;99.90;;;;;;4981502;28;20034;-64
2021/08/08 07:24:13;;;;;;;12.45;11.35;;;16.60;99.90;;;;;;4984047;28;20058;-67
2021/08/08 07:26:40;;;;;;;13.90;11.70;;;16.70;99.90;;;;;;4982490;28;20048;-65
2021/08/08 07:29:08;;;;;;;14.52;13.13;;;16.70;99.90;;;;;;4980951;28;20046;-65
2021/08/08 07:31:52;;;;;;;12.52;11.55;;;16.80;99.90;;;;;;4999647;28;20035;-67
2021/08/08 07:34:21;;;;;;;12.30;11.05;;;16.80;99.90;;;;;;4985079;28;20054;-68
2021/08/08 07:36:48;;;;;;;13.02;11.93;;;16.90;99.90;;;;;;4985709;28;20053;-65
2021/08/08 07:39:14;;;;;;;11.55;10.45;;;16.90;99.90;;;;;;4984830;28;20046;-67
2021/08/08 07:41:42;;;;;;;11.70;10.63;;;17.00;99.90;;;;;;4985609;28;20365;-68
2021/08/08 07:44:10;;;;;;;11.98;10.88;;;17.00;99.90;;;;;;4981753;28;20815;-66
2021/08/08 07:46:37;;;;;;;12.95;11.80;;;17.00;99.90;;;;;;4983552;28;20053;-66
2021/08/08 07:49:04;;;;;;;12.25;11.05;;;17.10;99.90;;;;;;5000693;28;20077;-67
2021/08/08 07:51:31;;;;;;;11.88;10.85;;;17.20;99.90;;;;;;4981936;28;20480;-67
2021/08/08 07:53:58;;;;;;;12.55;11.38;;;17.30;99.90;;;;;;4983647;28;20049;-66
2021/08/08 07:56:26;;;;;;;13.05;12.00;;;17.30;99.90;;;;;;4981656;28;20129;-65
2021/08/08 07:58:54;;;;;;;12.32;11.32;;;17.40;99.90;;;;;;4998147;28;20066;-66
2021/08/08 08:01:22;;;;;;;23.20;14.32;;;17.50;99.90;;;;;;4983038;28;20054;-66
2021/08/08 08:03:49;;;;;;;13.98;12.88;;;17.60;99.90;;;;;;4984936;28;20042;-67
2021/08/08 08:06:17;;;;;;;11.02;10.00;;;17.60;99.90;;;;;;4979884;28;20038;-65
2021/08/08 08:08:43;;;;;;;13.50;12.15;;;17.60;99.90;;;;;;4985745;28;20129;-67
2021/08/08 08:11:12;;;;;;;11.15;9.57;;;17.60;99.90;;;;;;4979839;28;20101;-67
2021/08/08 08:13:39;;;;;;;10.93;10.13;;;17.50;99.90;;;;;;4986312;28;20042;-67
2021/08/08 08:16:06;;;;;;;11.93;10.77;;;17.60;99.90;;;;;;4996704;28;20048;-68
2021/08/08 08:18:33;;;;;;;10.52;9.63;;;17.50;99.90;;;;;;4983829;28;20361;-66
2021/08/08 08:21:00;;;;;;;11.63;10.63;;;17.50;99.90;;;;;;4983363;28;20642;-65
2021/08/08 08:23:27;;;;;;;12.55;11.45;;;17.50;99.90;;;;;;4982262;28;20150;-69
2021/08/08 08:25:54;;;;;;;11.70;10.70;;;17.50;99.90;;;;;;4986268;28;20046;-66
2021/08/08 08:28:21;;;;;;;12.85;11.85;;;17.50;99.90;;;;;;4968373;28;20058;-66
2021/08/08 08:30:48;;;;;;;13.38;12.27;;;17.50;99.90;;;;;;4986324;28;20046;-66
2021/08/08 08:33:16;;;;;;;10.73;9.93;;;17.50;99.90;;;;;;4980830;28;20193;-69
2021/08/08 08:35:44;;;;;;;12.40;11.13;;;17.50;99.90;;;;;;4985557;28;20050;-68
2021/08/08 08:38:11;;;;;;;11.32;10.25;;;17.50;99.90;;;;;;4982518;28;20042;-68
2021/08/08 08:40:41;;;;;;;10.85;10.00;;;17.50;99.90;;;;;;4981859;28;20038;-71
2021/08/08 08:43:09;;;;;;;11.48;10.48;;;17.50;99.90;;;;;;4980031;28;20121;-66
2021/08/08 08:45:40;;;;;;;11.65;10.60;;;17.50;99.90;;;;;;4982282;28;20369;-67
2021/08/08 08:48:09;;;;;;;10.63;9.75;;;17.50;99.90;;;;;;4982085;28;20038;-65
2021/08/08 08:50:37;;;;;;;11.52;10.52;;;17.50;99.90;;;;;;4980945;28;20049;-68
2021/08/08 08:53:05;;;;;;;10.65;9.75;;;17.50;99.90;;;;;;4986616;28;20569;-68
2021/08/08 08:55:33;;;;;;;13.20;11.73;;;17.60;99.90;;;;;;4982242;28;20325;-67
2021/08/08 08:58:00;;;;;;;13.70;12.60;;;17.60;99.90;;;;;;4980871;28;20046;-67
2021/08/08 09:00:27;;;;;;;12.35;11.20;;;17.70;99.90;;;;;;4982433;28;20100;-66
2021/08/08 09:02:54;;;;;;;12.00;11.05;;;17.70;99.90;;;;;;4983744;28;20112;-69
2021/08/08 09:05:23;;;;;;;12.15;11.18;;;17.70;99.90;;;;;;4977446;28;20443;-68
2021/08/08 09:07:52;;;;;;;11.52;10.55;;;17.70;99.90;;;;;;4983791;28;20050;-65
2021/08/08 09:10:23;;;;;;;11.13;10.13;;;17.70;99.90;;;;;;4978715;28;20358;-64
2021/08/08 09:13:01;;;;;;;11.20;10.30;;;17.70;99.90;;;;;;4982895;28;20156;-66
2021/08/08 09:15:37;;;;;;;11.98;10.88;;;17.80;99.90;;;;;;4981050;28;20418;-65
2021/08/08 09:18:19;;;;;;;11.45;10.52;;;17.80;99.90;;;;;;4984180;28;20384;-66
2021/08/08 09:21:09;;;;;;;12.30;11.23;;;17.80;99.90;;;;;;4980630;28;20121;-66
2021/08/08 09:23:40;;;;;;;11.18;10.18;;;17.90;99.90;;;;;;4980871;28;20076;-66
2021/08/08 09:26:07;;;;;;;10.60;9.77;;;17.90;99.90;;;;;;4985048;28;20100;-64
2021/08/08 09:28:39;;;;;;;9.80;8.90;;;18.00;99.90;;;;;;4979621;28;20042;-67
2021/08/08 09:31:18;;;;;;;8.70;7.93;;;18.00;99.90;;;;;;4980399;28;20045;-64
2021/08/08 09:33:46;;;;;;;7.90;5.95;;;17.90;99.90;;;;;;4983835;28;20141;-69
2021/08/08 09:36:13;;;;;;;7.03;6.43;;;17.80;99.90;;;;;;4901631;28;20173;-65
2021/08/08 09:38:46;;;;;;;6.33;5.85;;;17.80;99.90;;;;;;487627;28;10023341;-67
2021/08/08 09:41:24;;;;;;;6.38;5.85;;;17.90;99.90;;;;;;4978761;28;20679;-67
2021/08/08 09:43:51;;;;;;;7.80;7.20;;;18.00;99.90;;;;;;4985530;28;20047;-68
2021/08/08 09:46:18;;;;;;;8.00;7.20;;;18.10;99.90;;;;;;4981022;28;20767;-66
2021/08/08 09:48:45;;;;;;;6.78;6.18;;;18.20;99.90;;;;;;4983596;28;20481;-67
2021/08/08 09:51:13;;;;;;;6.28;5.78;;;18.30;99.90;;;;;;4986493;28;20125;-67
2021/08/08 09:53:40;;;;;;;6.72;6.20;;;18.20;99.90;;;;;;4987176;28;20117;-67
2021/08/08 09:56:17;;;;;;;7.07;5.90;;;18.30;99.90;;;;;;4986780;28;20046;-67
2021/08/08 09:58:48;;;;;;;5.55;4.85;;;18.20;99.90;;;;;;4985112;28;20031;-65
2021/08/08 10:01:15;;;;;;;5.15;4.45;;;18.30;99.90;;;;;;4987133;28;20535;-70
2021/08/08 10:03:42;;;;;;;5.70;5.15;;;18.40;99.90;;;;;;4983397;28;20687;-67
2021/08/08 10:06:14;;;;;;;5.55;5.10;;;18.50;99.90;;;;;;4986822;28;20527;-65
2021/08/08 10:08:44;;;;;;;5.78;5.28;;;18.60;99.90;;;;;;4975869;28;20089;-65
2021/08/08 10:11:12;;;;;;;6.65;6.15;;;18.70;99.90;;;;;;4987909;28;20040;-70
2021/08/08 10:13:57;;;;;;;5.38;4.97;;;18.70;99.90;;;;;;4986524;28;20042;-68
2021/08/08 10:16:26;;;;;;;6.10;5.50;;;18.70;99.90;;;;;;4987667;28;20040;-67
2021/08/08 10:19:01;;;;;;;5.53;5.03;;;18.80;99.90;;;;;;4980983;28;20178;-65
2021/08/08 10:21:32;;;;;;;5.60;5.10;;;18.90;99.90;;;;;;4979209;28;20105;-65
2021/08/08 10:24:06;;;;;;;3.45;3.03;;;18.90;99.90;;;;;;4984431;28;20042;-66
2021/08/08 10:26:33;;;;;;;9.55;4.60;;;18.60;99.90;;;;;;4986329;28;20045;-66
2021/08/08 10:29:01;;;;;;;4.95;2.33;;;18.40;99.90;;;;;;4986273;28;20058;-66
2021/08/08 10:31:31;;;;;;;4.50;2.17;;;18.00;99.90;;;;;;4980407;28;20046;-70
2021/08/08 10:34:00;;;;;;;1.73;1.63;;;17.80;99.90;;;;;;4985777;28;20046;-66
2021/08/08 10:36:30;;;;;;;2.10;1.33;;;17.50;99.90;;;;;;4982894;28;20129;-66
2021/08/08 10:39:13;;;;;;;3.53;1.80;;;17.40;99.90;;;;;;4993075;28;20106;-71
2021/08/08 10:41:42;;;;;;;3.42;2.28;;;17.30;99.90;;;;;;4986080;28;20062;-69
2021/08/08 10:44:13;;;;;;;6.82;2.90;;;17.20;99.90;;;;;;4985802;28;20471;-68
2021/08/08 10:46:50;;;;;;;4.40;2.15;;;17.10;99.90;;;;;;4984705;28;20465;-65
2021/08/08 10:49:28;;;;;;;5.60;2.20;;;17.10;99.90;;;;;;4984544;28;20118;-69
2021/08/08 10:51:58;;;;;;;3.17;2.22;;;17.10;99.90;;;;;;4991339;28;20046;-67
2021/08/08 10:54:25;;;;;;;2.83;1.80;;;17.10;99.90;;;;;;4984068;28;20496;-68
2021/08/08 10:56:53;;;;;;;4.03;1.90;;;17.20;99.90;;;;;;4986337;28;20058;-65
2021/08/08 10:59:23;;;;;;;2.25;2.05;;;17.30;99.90;;;;;;4983984;28;20100;-67
2021/08/08 11:02:27;;;;;;;3.47;2.30;;;17.30;99.90;;;;;;4986568;28;20097;-67
2021/08/08 11:04:55;;;;;;;5.03;2.67;;;17.40;99.90;;;;;;4983389;28;20061;-67
2021/08/08 11:07:27;;;;;;;4.32;2.88;;;17.50;99.90;;;;;;4987696;28;20149;-68
2021/08/08 11:09:55;;;;;;;3.10;2.80;;;17.60;99.90;;;;;;4983543;28;20529;-65
2021/08/08 11:12:39;;;;;;;2.47;1.88;;;17.60;99.90;;;;;;4983006;28;20054;-65
2021/08/08 11:15:10;;;;;;;2.28;1.60;;;17.70;99.90;;;;;;4982605;28;20039;-65
2021/08/08 11:17:40;;;;;;;2.72;2.15;;;17.80;99.90;;;;;;4985539;28;20046;-65
2021/08/08 11:20:08;;;;;;;3.17;1.98;;;17.80;99.90;;;;;;4989321;28;20070;-68
2021/08/08 11:22:35;;;;;;;2.40;2.20;;;17.90;99.90;;;;;;4983421;28;20431;-71
2021/08/08 11:25:09;;;;;;;3.60;2.10;;;18.00;99.90;;;;;;4986635;28;20058;-64
2021/08/08 11:27:39;;;;;;;4.53;2.47;;;18.10;99.90;;;;;;4984334;28;20699;-67
2021/08/08 11:30:15;;;;;;;2.50;1.98;;;18.20;99.90;;;;;;4984022;28;20081;-69
2021/08/08 11:32:42;;;;;;;3.83;2.65;;;18.50;99.90;;;;;;4984445;28;20392;-65
2021/08/08 11:35:14;;;;;;;3.50;1.80;;;18.60;99.90;;;;;;4984103;28;20073;-68
2021/08/08 11:37:45;;;;;;;4.22;2.33;;;18.80;99.90;;;;;;4985437;28;20116;-67
2021/08/08 11:40:22;;;;;;;2.13;1.92;;;19.00;99.90;;;;;;4984511;28;20030;-67
2021/08/08 11:43:05;;;;;;;4.22;2.63;;;19.20;99.90;;;;;;4982637;28;20043;-68
2021/08/08 11:45:34;;;;;;;2.95;1.90;;;19.20;99.90;;;;;;4974584;28;20097;-66
2021/08/08 11:48:02;;;;;;;2.72;2.33;;;19.30;99.90;;;;;;4977991;28;20128;-67
2021/08/08 11:50:29;;;;;;;2.22;2.03;;;19.60;99.90;;;;;;4981363;28;20534;-66
2021/08/08 11:52:58;;;;;;;3.10;2.85;;;19.70;99.90;;;;;;4967369;28;20050;-67
2021/08/08 11:55:25;;;;;;;2.53;2.33;;;19.80;99.90;;;;;;4976429;28;20161;-70
2021/08/08 11:58:06;;;;;;;5.18;3.13;;;19.90;99.90;;;;;;4983087;28;20061;-66
2021/08/08 12:00:37;;;;;;;2.70;2.50;;;20.10;99.90;;;;;;4970339;28;20038;-69
2021/08/08 12:03:06;;;;;;;3.40;2.03;;;20.20;99.90;;;;;;4971166;28;20391;-70
2021/08/08 12:05:39;;;;;;;2.63;2.42;;;20.30;99.90;;;;;;4979251;28;20372;-68
2021/08/08 12:08:07;;;;;;;2.13;1.92;;;20.60;99.90;;;;;;4984147;28;20054;-65
2021/08/08 12:10:36;;;;;;;2.50;2.25;;;20.60;99.90;;;;;;4976041;28;21096;-66
2021/08/08 12:13:15;;;;;;;2.10;1.90;;;20.80;99.90;;;;;;4980715;28;20050;-67
2021/08/08 12:15:42;;;;;;;2.15;1.95;;;20.80;99.90;;;;;;4981362;28;20048;-67
2021/08/08 12:18:10;;;;;;;3.30;2.50;;;21.00;99.90;;;;;;4976292;28;20100;-66
2021/08/08 12:20:39;;;;;;;3.28;2.22;;;21.30;99.90;;;;;;4986553;28;20042;-65
2021/08/08 12:23:12;;;;;;;6.85;2.63;;;21.40;99.90;;;;;;4981382;28;20693;-67
2021/08/08 12:25:43;;;;;;;4.60;2.53;;;21.60;99.90;;;;;;4984614;28;20050;-66
2021/08/08 12:28:21;;;;;;;5.10;1.88;;;21.70;99.90;;;;;;4982401;28;20081;-67
2021/08/08 12:30:49;;;;;;;4.55;1.90;;;21.70;99.90;;;;;;4982365;28;20043;-66
2021/08/08 12:33:18;;;;;;;1.77;1.60;;;21.80;99.90;;;;;;4984307;28;20089;-71
2021/08/08 12:35:46;;;;;;;3.63;1.98;;;21.80;99.90;;;;;;4984669;28;20468;-66
2021/08/08 12:38:15;;;;;;;3.08;1.88;;;21.90;99.90;;;;;;4982346;28;20053;-66
2021/08/08 12:40:51;;;;;;;4.05;2.20;;;21.80;99.90;;;;;;4982042;28;20127;-68
2021/08/08 12:43:26;;;;;;;2.90;2.05;;;21.90;99.90;;;;;;4984588;28;20112;-68
2021/08/08 12:45:54;;;;;;;3.72;1.95;;;21.90;99.90;;;;;;4983911;28;20069;-67